Time;durP1;ratioP1;P1;durP2;ratioP2;P2;SDS_P1;SDS_P2;PMS_P1;PMS_P2;Temp;Humidity;BMP_temperature;BMP_pressure;BME280_temperature;BME280_humidity;BME280_pressure;Samples;Min_cycle;Max_cycle;Signal;HPM_P1;HPM_P2
2022/08/18 00:01:31;;;;;;;12.23;11.33;;;20.90;99.90;;;;;;5025268;28;20421;-59
2022/08/18 00:03:58;;;;;;;12.17;11.33;;;20.90;99.90;;;;;;5019068;28;20185;-59
2022/08/18 00:06:24;;;;;;;12.30;11.20;;;20.90;99.90;;;;;;5031892;28;21221;-59
2022/08/18 00:08:50;;;;;;;12.03;11.13;;;20.80;99.90;;;;;;5033039;28;20445;-58
2022/08/18 00:11:23;;;;;;;12.03;11.20;;;20.80;99.90;;;;;;5031357;28;20189;-58
2022/08/18 00:13:48;;;;;;;12.03;11.13;;;20.70;99.90;;;;;;5029497;28;20256;-56
2022/08/18 00:16:14;;;;;;;12.87;11.80;;;20.70;99.90;;;;;;5029571;28;20438;-59
2022/08/18 00:18:39;;;;;;;12.13;11.17;;;20.70;99.90;;;;;;5030862;28;20650;-59
2022/08/18 00:21:05;;;;;;;12.60;11.70;;;20.60;99.90;;;;;;5031992;28;20241;-59
2022/08/18 00:23:31;;;;;;;12.13;11.13;;;20.60;99.90;;;;;;5030002;28;20255;-58
2022/08/18 00:25:59;;;;;;;11.83;11.03;;;20.60;99.90;;;;;;5031277;28;20199;-59
2022/08/18 00:28:24;;;;;;;12.40;11.30;;;20.50;99.90;;;;;;5032026;28;20890;-60
2022/08/18 00:30:50;;;;;;;11.90;10.97;;;20.40;99.90;;;;;;5032019;28;20516;-59
2022/08/18 00:33:15;;;;;;;12.57;11.47;;;20.40;99.90;;;;;;5031415;28;20191;-59
2022/08/18 00:35:41;;;;;;;12.53;11.70;;;20.40;99.90;;;;;;5031859;28;20179;-58
2022/08/18 00:38:07;;;;;;;12.40;11.50;;;20.40;99.90;;;;;;5031135;28;20214;-56
2022/08/18 00:40:47;;;;;;;12.87;11.97;;;20.40;99.90;;;;;;5030771;28;20194;-58
2022/08/18 00:43:18;;;;;;;12.30;11.40;;;20.40;99.90;;;;;;5036364;28;20433;-59
2022/08/18 00:45:44;;;;;;;11.93;11.13;;;20.40;99.90;;;;;;5029912;28;20449;-57
2022/08/18 00:48:11;;;;;;;12.60;11.70;;;20.40;99.90;;;;;;5030993;28;20433;-58
2022/08/18 00:50:39;;;;;;;12.50;11.50;;;20.30;99.90;;;;;;5030727;28;20478;-59
2022/08/18 00:53:42;;;;;;;12.53;11.40;;;20.30;99.90;;;;;;5031155;28;20509;-57
2022/08/18 00:56:12;;;;;;;12.70;11.80;;;20.30;99.90;;;;;;5030155;28;20524;-59
2022/08/18 00:58:46;;;;;;;12.50;11.47;;;20.30;99.90;;;;;;5030288;28;20469;-58
2022/08/18 01:01:13;;;;;;;13.20;12.00;;;20.20;99.90;;;;;;5030588;28;20416;-57
2022/08/18 01:03:42;;;;;;;12.10;11.30;;;20.20;99.90;;;;;;5030215;28;20445;-57
2022/08/18 01:06:15;;;;;;;12.90;11.80;;;20.20;99.90;;;;;;5031035;28;20979;-57
2022/08/18 01:08:41;;;;;;;12.83;11.83;;;20.20;99.90;;;;;;5030429;28;20419;-59
2022/08/18 01:11:09;;;;;;;12.93;12.03;;;20.10;99.90;;;;;;5030088;28;20477;-58
2022/08/18 01:13:37;;;;;;;12.20;11.30;;;20.10;99.90;;;;;;5029319;28;20512;-58
2022/08/18 01:21:49;;;;;;;13.00;12.10;;;20.00;99.90;;;;;;5027360;28;21297;-58
2022/08/18 01:21:59;;;;;;;12.40;11.20;;;20.00;99.90;;;;;;5030678;28;20564;-58
2022/08/18 01:27:17;;;;;;;12.73;11.83;;;19.90;99.90;;;;;;5030078;28;20449;-58
2022/08/18 01:29:48;;;;;;;12.13;11.10;;;19.90;99.90;;;;;;5016693;28;20470;-56
2022/08/18 01:32:19;;;;;;;12.43;11.53;;;19.90;99.90;;;;;;5010563;28;20414;-57
2022/08/18 01:34:50;;;;;;;12.93;11.90;;;19.80;99.90;;;;;;5010201;28;20857;-58
2022/08/18 01:37:19;;;;;;;12.93;11.87;;;19.80;99.90;;;;;;5009317;28;20797;-59
2022/08/18 01:39:45;;;;;;;12.87;11.90;;;19.80;99.90;;;;;;5025311;28;20854;-58
2022/08/18 01:42:15;;;;;;;12.57;11.67;;;19.80;99.90;;;;;;5013982;28;20433;-60
2022/08/18 01:44:42;;;;;;;13.27;12.07;;;19.80;99.90;;;;;;5023442;28;20974;-59
2022/08/18 01:47:10;;;;;;;12.47;11.60;;;19.80;99.90;;;;;;5029852;28;20418;-59
2022/08/18 01:49:36;;;;;;;13.40;12.40;;;19.70;99.90;;;;;;5029600;28;20776;-59
2022/08/18 01:52:05;;;;;;;13.20;12.20;;;19.70;99.90;;;;;;5029723;28;20900;-58
2022/08/18 01:54:31;;;;;;;13.10;12.03;;;19.70;99.90;;;;;;5029688;28;20772;-58
2022/08/18 01:56:57;;;;;;;13.33;12.27;;;19.70;99.90;;;;;;5028107;28;20567;-60
2022/08/18 01:59:23;;;;;;;13.07;12.00;;;19.60;99.90;;;;;;5029659;28;20508;-59
2022/08/18 02:01:48;;;;;;;12.97;11.97;;;19.60;99.90;;;;;;5029322;28;20179;-58
2022/08/18 02:04:16;;;;;;;12.90;12.00;;;19.60;99.90;;;;;;5029810;28;20193;-59
2022/08/18 02:06:42;;;;;;;12.60;11.70;;;19.60;99.90;;;;;;5029379;28;20179;-57
2022/08/18 02:09:07;;;;;;;12.87;11.87;;;19.50;99.90;;;;;;5020924;28;20543;-58
2022/08/18 02:11:33;;;;;;;13.53;12.17;;;19.50;99.90;;;;;;5040000;28;20468;-58
2022/08/18 02:13:59;;;;;;;13.00;11.93;;;19.50;99.90;;;;;;5029347;28;20182;-57
2022/08/18 02:16:24;;;;;;;13.10;12.20;;;19.50;99.90;;;;;;5029413;28;20241;-57
2022/08/18 02:18:50;;;;;;;12.70;11.63;;;19.50;99.90;;;;;;5030561;28;20265;-56
2022/08/18 02:21:18;;;;;;;12.83;11.67;;;19.50;99.90;;;;;;5033986;28;20174;-58
2022/08/18 02:23:45;;;;;;;13.03;11.97;;;19.50;99.90;;;;;;5030029;28;20175;-59
2022/08/18 02:26:13;;;;;;;12.50;11.60;;;19.40;99.90;;;;;;5027034;28;20410;-59
2022/08/18 02:28:39;;;;;;;12.70;11.30;;;19.50;99.90;;;;;;5030413;28;20982;-57
2022/08/18 02:31:10;;;;;;;13.30;12.27;;;19.50;99.90;;;;;;5030049;28;20532;-59
2022/08/18 02:33:36;;;;;;;12.50;11.60;;;19.40;99.90;;;;;;5028400;28;20187;-58
2022/08/18 02:36:03;;;;;;;12.77;11.87;;;19.50;99.90;;;;;;5028101;28;20495;-58
2022/08/18 02:38:29;;;;;;;12.63;11.73;;;19.40;99.90;;;;;;5029272;28;20777;-57
2022/08/18 02:40:59;;;;;;;12.50;11.60;;;19.40;99.90;;;;;;5029175;28;20433;-54
2022/08/18 02:43:27;;;;;;;13.70;12.50;;;19.40;99.90;;;;;;5029720;28;20447;-59
2022/08/18 02:45:52;;;;;;;12.77;11.87;;;19.30;99.90;;;;;;5028746;28;20749;-60
2022/08/18 02:48:32;;;;;;;13.70;12.60;;;19.30;99.90;;;;;;5030997;28;20554;-57
2022/08/18 02:51:11;;;;;;;13.00;12.00;;;19.30;99.90;;;;;;5020386;28;20344;-59
2022/08/18 02:53:38;;;;;;;12.97;11.97;;;19.30;99.90;;;;;;5031827;28;20455;-59
2022/08/18 02:56:23;;;;;;;13.80;12.60;;;19.30;99.90;;;;;;5028268;28;20442;-58
2022/08/18 02:58:52;;;;;;;13.47;12.30;;;19.30;99.90;;;;;;5035646;28;20480;-56
2022/08/18 03:01:21;;;;;;;12.80;11.80;;;19.30;99.90;;;;;;5030640;28;20441;-57
2022/08/18 03:03:48;;;;;;;13.37;12.37;;;19.30;99.90;;;;;;5028830;28;21004;-59
2022/08/18 03:06:15;;;;;;;13.30;12.03;;;19.30;99.90;;;;;;5036854;28;20829;-60
2022/08/18 03:08:41;;;;;;;12.97;11.80;;;19.30;99.90;;;;;;5034327;28;20421;-57
2022/08/18 03:11:07;;;;;;;13.00;11.97;;;19.20;99.90;;;;;;5032619;28;20476;-56
2022/08/18 03:13:32;;;;;;;12.00;11.00;;;19.20;99.90;;;;;;5029310;28;20421;-56
2022/08/18 03:15:58;;;;;;;12.73;11.83;;;19.20;99.90;;;;;;5032597;28;20282;-57
2022/08/18 03:18:24;;;;;;;12.50;11.50;;;19.20;99.90;;;;;;5022497;28;20172;-57
2022/08/18 03:20:50;;;;;;;13.93;12.73;;;19.20;99.90;;;;;;5032980;28;20436;-58
2022/08/18 03:23:17;;;;;;;12.80;11.80;;;19.20;99.90;;;;;;5031765;28;20196;-57
2022/08/18 03:25:48;;;;;;;13.40;12.40;;;19.30;99.90;;;;;;5020756;28;20524;-60
2022/08/18 03:28:15;;;;;;;12.97;12.00;;;19.30;99.90;;;;;;5032480;28;20437;-58
2022/08/18 03:30:42;;;;;;;13.20;12.20;;;19.20;99.90;;;;;;5033438;28;20552;-59
2022/08/18 03:33:08;;;;;;;12.83;11.93;;;19.30;99.90;;;;;;5031964;28;20912;-56
2022/08/18 03:35:35;;;;;;;12.80;11.80;;;19.30;99.90;;;;;;5033191;28;20420;-58
2022/08/18 03:38:02;;;;;;;13.73;12.57;;;19.30;99.90;;;;;;5032161;28;20438;-57
2022/08/18 03:40:27;;;;;;;12.40;11.40;;;19.30;99.90;;;;;;5032672;28;20499;-57
2022/08/18 03:42:53;;;;;;;12.80;11.80;;;19.30;99.90;;;;;;5032077;28;20429;-58
2022/08/18 03:45:18;;;;;;;13.43;12.50;;;19.30;99.90;;;;;;5032812;28;20605;-58
2022/08/18 03:47:44;;;;;;;12.83;11.90;;;19.30;99.90;;;;;;5033197;28;20210;-58
2022/08/18 03:50:11;;;;;;;12.90;11.90;;;19.30;99.90;;;;;;5032039;28;20199;-57
2022/08/18 03:52:37;;;;;;;13.53;12.43;;;19.30;99.90;;;;;;5029469;28;20182;-57
2022/08/18 03:55:04;;;;;;;13.77;12.67;;;19.30;99.90;;;;;;5030363;28;20485;-58
2022/08/18 03:57:31;;;;;;;13.77;12.77;;;19.30;99.90;;;;;;5031646;28;20537;-58
2022/08/18 03:59:57;;;;;;;12.63;11.73;;;19.30;99.90;;;;;;5029568;28;21143;-58
2022/08/18 04:02:23;;;;;;;13.40;12.40;;;19.20;99.90;;;;;;5032697;28;20426;-56
2022/08/18 04:04:49;;;;;;;13.47;12.43;;;19.30;99.90;;;;;;5031810;28;20215;-54
2022/08/18 04:07:16;;;;;;;12.73;11.70;;;19.20;99.90;;;;;;5032343;28;20633;-55
2022/08/18 04:09:42;;;;;;;13.00;12.10;;;19.20;99.90;;;;;;5023919;28;20509;-59
2022/08/18 04:12:13;;;;;;;13.70;12.50;;;19.20;99.90;;;;;;5032505;28;20414;-59
2022/08/18 04:14:41;;;;;;;12.70;11.70;;;19.20;99.90;;;;;;5014333;28;20542;-58
2022/08/18 04:17:08;;;;;;;13.33;12.23;;;19.20;99.90;;;;;;5003179;28;21357;-58
2022/08/18 04:19:34;;;;;;;12.13;11.23;;;19.20;99.90;;;;;;5009634;28;20460;-58
2022/08/18 04:22:02;;;;;;;13.07;11.97;;;19.10;99.90;;;;;;5015389;28;20512;-57
2022/08/18 04:24:29;;;;;;;13.37;12.37;;;19.10;99.90;;;;;;5003798;28;20464;-58
2022/08/18 04:26:56;;;;;;;13.73;12.43;;;19.00;99.90;;;;;;5022685;28;20421;-57
2022/08/18 04:29:23;;;;;;;12.97;11.97;;;19.00;99.90;;;;;;5004231;28;20556;-53
2022/08/18 04:31:50;;;;;;;13.63;12.63;;;18.90;99.90;;;;;;5021649;28;20963;-54
2022/08/18 04:34:19;;;;;;;12.40;11.50;;;18.90;99.90;;;;;;5022070;28;20413;-51
2022/08/18 04:36:45;;;;;;;14.80;13.37;;;18.90;99.90;;;;;;5022132;28;20418;-53
2022/08/18 04:39:12;;;;;;;13.90;12.70;;;18.90;99.90;;;;;;5021325;28;20414;-50
2022/08/18 04:41:42;;;;;;;14.33;13.23;;;18.90;99.90;;;;;;5025360;28;20558;-52
2022/08/18 04:44:08;;;;;;;13.23;12.23;;;18.90;99.90;;;;;;5027768;28;20452;-51
2022/08/18 04:46:38;;;;;;;12.87;11.77;;;18.90;99.90;;;;;;5030742;28;20452;-50
2022/08/18 04:49:04;;;;;;;13.17;12.07;;;18.90;99.90;;;;;;5030912;28;20425;-52
2022/08/18 04:51:30;;;;;;;13.20;12.20;;;18.90;99.90;;;;;;5030253;28;20444;-51
2022/08/18 04:53:59;;;;;;;13.20;12.30;;;18.90;99.90;;;;;;5033080;28;20202;-53
2022/08/18 04:56:32;;;;;;;13.80;12.60;;;18.90;99.90;;;;;;5034025;28;20176;-52
2022/08/18 04:59:07;;;;;;;15.87;14.47;;;18.90;99.90;;;;;;5035950;28;20770;-52
2022/08/18 05:01:41;;;;;;;13.77;12.70;;;19.00;99.90;;;;;;5021554;28;20433;-52
2022/08/18 05:04:08;;;;;;;13.87;12.77;;;19.20;99.90;;;;;;5029488;28;20410;-48
2022/08/18 05:06:34;;;;;;;13.03;11.97;;;19.10;99.90;;;;;;5028933;28;20409;-52
2022/08/18 05:09:05;;;;;;;13.07;11.70;;;19.10;99.90;;;;;;5030119;28;20418;-52
2022/08/18 05:11:33;;;;;;;13.40;12.30;;;19.20;99.90;;;;;;5030430;28;20432;-51
2022/08/18 05:14:00;;;;;;;13.57;12.57;;;19.30;99.90;;;;;;5031096;28;20426;-49
2022/08/18 05:16:27;;;;;;;13.60;12.37;;;19.30;99.90;;;;;;5030556;28;20418;-52
2022/08/18 05:18:53;;;;;;;13.13;12.13;;;19.30;99.90;;;;;;5031924;28;20424;-51
2022/08/18 05:21:21;;;;;;;13.90;12.80;;;19.40;99.90;;;;;;5028554;28;20433;-51
2022/08/18 05:23:49;;;;;;;13.47;12.47;;;19.50;99.90;;;;;;5030007;28;20419;-50
2022/08/18 05:26:18;;;;;;;13.50;12.43;;;19.60;99.90;;;;;;5030699;28;20779;-51
2022/08/18 05:28:45;;;;;;;14.10;12.70;;;19.60;99.90;;;;;;5029896;28;20410;-55
2022/08/18 05:31:21;;;;;;;13.63;12.60;;;19.60;99.90;;;;;;5030394;28;20472;-50
2022/08/18 05:33:48;;;;;;;13.30;12.30;;;19.60;99.90;;;;;;5029926;28;20417;-52
2022/08/18 05:36:36;;;;;;;13.93;12.83;;;19.60;99.90;;;;;;5030984;28;20423;-52
2022/08/18 05:39:12;;;;;;;13.37;12.37;;;19.60;99.90;;;;;;5029905;28;20460;-53
2022/08/18 05:41:41;;;;;;;13.43;12.23;;;19.60;99.90;;;;;;5029731;28;20432;-55
2022/08/18 05:44:11;;;;;;;14.03;12.90;;;19.60;99.90;;;;;;5029673;28;20417;-52
2022/08/18 05:46:51;;;;;;;13.70;12.60;;;19.70;99.90;;;;;;5030821;28;20406;-51
2022/08/18 05:49:18;;;;;;;13.63;12.63;;;19.70;99.90;;;;;;5029627;28;20867;-51
2022/08/18 05:51:59;;;;;;;14.13;12.90;;;19.70;99.90;;;;;;5028554;28;20536;-54
2022/08/18 05:57:22;;;;;;;15.40;13.80;;;19.90;99.90;;;;;;5029648;28;20463;-54
2022/08/18 05:59:52;;;;;;;13.70;12.70;;;20.00;99.90;;;;;;5029651;28;21158;-54
2022/08/18 06:02:44;;;;;;;14.60;13.40;;;20.10;99.90;;;;;;5029393;28;20422;-54
2022/08/18 06:05:14;;;;;;;14.43;13.23;;;20.10;99.90;;;;;;5029878;28;20421;-50
2022/08/18 06:07:52;;;;;;;14.10;12.80;;;20.30;99.90;;;;;;5030331;28;20423;-53
2022/08/18 06:10:18;;;;;;;14.00;12.90;;;20.40;99.90;;;;;;5029131;28;20470;-52
2022/08/18 06:12:53;;;;;;;13.80;12.70;;;20.50;99.90;;;;;;5029432;28;20414;-51
2022/08/18 06:15:28;;;;;;;14.53;13.43;;;20.70;99.90;;;;;;5030184;28;20525;-52
2022/08/18 06:18:20;;;;;;;13.90;12.70;;;20.80;99.90;;;;;;5029422;28;20480;-53
2022/08/18 06:21:20;;;;;;;13.90;12.80;;;21.00;99.90;;;;;;5029841;28;20520;-51
2022/08/18 06:24:04;;;;;;;14.80;13.70;;;21.20;99.90;;;;;;5027931;28;20443;-52
2022/08/18 06:27:03;;;;;;;12.97;11.97;;;21.50;99.90;;;;;;5030477;28;20420;-50
2022/08/18 06:29:49;;;;;;;13.60;12.53;;;21.70;99.90;;;;;;5029580;28;20467;-53
2022/08/18 06:32:35;;;;;;;14.27;12.97;;;21.80;99.90;;;;;;5029220;28;20420;-52
2022/08/18 06:35:32;;;;;;;13.70;12.60;;;22.00;99.90;;;;;;5028827;28;20975;-51
2022/08/18 06:40:49;;;;;;;14.27;13.17;;;22.30;99.90;;;;;;5029893;28;20482;-49
2022/08/18 06:43:16;;;;;;;13.73;12.53;;;22.50;99.90;;;;;;5029083;28;20474;-49
2022/08/18 06:45:49;;;;;;;13.43;12.33;;;22.60;99.90;;;;;;5029131;28;20950;-53
2022/08/18 06:48:20;;;;;;;13.97;12.87;;;22.80;99.90;;;;;;5029746;28;20504;-53
2022/08/18 06:50:51;;;;;;;13.97;12.87;;;23.00;99.90;;;;;;5027681;28;20465;-49
2022/08/18 06:53:17;;;;;;;13.40;12.40;;;23.10;99.90;;;;;;5033477;28;20966;-51
2022/08/18 06:55:46;;;;;;;14.80;13.60;;;23.30;99.90;;;;;;5029104;28;20413;-51
2022/08/18 06:58:12;;;;;;;14.27;12.70;;;23.50;99.50;;;;;;5028762;28;20232;-53
2022/08/18 07:00:42;;;;;;;13.50;12.50;;;23.70;99.40;;;;;;5027910;28;20422;-50
2022/08/18 07:03:18;;;;;;;14.37;13.30;;;23.90;99.30;;;;;;5028941;28;20838;-54
2022/08/18 07:06:06;;;;;;;12.93;12.03;;;24.10;97.90;;;;;;5031447;28;20429;-54
2022/08/18 07:08:33;;;;;;;14.03;12.93;;;24.40;97.30;;;;;;5031813;28;20429;-54
2022/08/18 07:11:20;;;;;;;13.87;12.67;;;24.70;96.80;;;;;;5030755;28;20976;-53
2022/08/18 07:13:50;;;;;;;13.50;12.43;;;24.90;95.90;;;;;;5034475;28;20596;-54
2022/08/18 07:16:34;;;;;;;13.03;12.03;;;25.10;95.20;;;;;;5029586;28;20438;-52
2022/08/18 07:19:07;;;;;;;13.70;12.80;;;25.30;94.10;;;;;;5028916;28;20419;-51
2022/08/18 07:21:36;;;;;;;13.23;12.33;;;25.50;93.30;;;;;;5025658;28;20918;-55
2022/08/18 07:24:13;;;;;;;13.60;12.70;;;25.70;92.70;;;;;;5029883;28;21054;-50
2022/08/18 07:27:03;;;;;;;14.47;13.17;;;26.00;92.30;;;;;;5028791;28;20417;-54
2022/08/18 07:29:32;;;;;;;12.70;11.70;;;26.30;91.50;;;;;;5029194;28;20472;-51
2022/08/18 07:32:03;;;;;;;13.47;12.20;;;26.50;90.80;;;;;;5029261;28;20455;-53
2022/08/18 07:34:44;;;;;;;13.57;12.47;;;26.50;90.20;;;;;;5028945;28;20769;-54
2022/08/18 07:37:23;;;;;;;13.80;12.90;;;26.70;88.20;;;;;;5031984;28;20421;-52
2022/08/18 07:40:23;;;;;;;13.60;12.60;;;26.80;87.30;;;;;;5033448;28;20441;-54
2022/08/18 07:43:03;;;;;;;14.13;13.23;;;27.10;86.50;;;;;;5031550;28;20421;-53
2022/08/18 07:45:50;;;;;;;14.10;13.20;;;27.20;85.40;;;;;;5032439;28;20423;-53
2022/08/18 07:48:15;;;;;;;14.60;13.60;;;27.50;83.90;;;;;;5031708;28;20428;-48
2022/08/18 07:51:06;;;;;;;14.20;13.10;;;27.60;82.20;;;;;;5028500;28;20461;-53
2022/08/18 07:53:45;;;;;;;13.97;12.80;;;27.80;81.20;;;;;;5030340;28;20356;-54
2022/08/18 07:56:51;;;;;;;15.47;14.47;;;27.90;78.60;;;;;;5031652;28;20411;-51
2022/08/18 07:59:17;;;;;;;14.47;13.30;;;28.00;77.90;;;;;;5021300;28;20501;-53
2022/08/18 08:02:04;;;;;;;14.83;13.70;;;28.10;76.80;;;;;;5031701;28;21319;-54
2022/08/18 08:04:45;;;;;;;13.83;12.77;;;28.20;74.90;;;;;;5032626;28;20178;-52
2022/08/18 08:07:15;;;;;;;14.23;13.30;;;28.30;75.10;;;;;;5031686;28;20422;-51
2022/08/18 08:10:00;;;;;;;14.47;13.20;;;28.40;74.60;;;;;;5030068;28;20552;-54
2022/08/18 08:12:50;;;;;;;13.77;12.70;;;28.50;74.10;;;;;;5033055;28;20420;-54
2022/08/18 08:15:57;;;;;;;14.90;13.60;;;28.70;71.70;;;;;;5031643;28;20425;-51
2022/08/18 08:18:46;;;;;;;14.50;13.40;;;28.70;71.50;;;;;;5029229;28;20432;-53
2022/08/18 08:21:17;;;;;;;14.53;13.43;;;28.70;71.30;;;;;;5031181;28;20425;-51
2022/08/18 08:24:09;;;;;;;14.83;13.70;;;28.90;69.30;;;;;;5031355;28;20895;-53
2022/08/18 08:27:03;;;;;;;14.03;13.07;;;29.10;67.40;;;;;;5031379;28;20481;-53
2022/08/18 08:29:41;;;;;;;13.57;12.67;;;29.20;66.40;;;;;;5031332;28;20465;-49
2022/08/18 08:32:29;;;;;;;14.10;13.03;;;29.40;65.80;;;;;;5031897;28;20439;-48
2022/08/18 08:35:05;;;;;;;14.47;13.57;;;29.60;64.10;;;;;;5031201;28;20444;-53
2022/08/18 08:37:47;;;;;;;15.23;14.10;;;29.90;62.60;;;;;;5030916;28;20481;-53
2022/08/18 08:40:23;;;;;;;14.13;13.03;;;30.10;61.70;;;;;;5031781;28;21260;-51
2022/08/18 08:43:04;;;;;;;14.53;13.43;;;30.20;61.30;;;;;;5031020;28;20870;-51
2022/08/18 08:45:36;;;;;;;14.90;13.90;;;30.50;60.50;;;;;;5030332;28;20492;-53
2022/08/18 08:48:07;;;;;;;14.20;13.20;;;30.70;58.70;;;;;;5031551;28;20426;-53
2022/08/18 08:50:43;;;;;;;14.80;13.73;;;30.90;57.30;;;;;;5029378;28;20449;-52
2022/08/18 08:53:19;;;;;;;14.57;13.47;;;31.10;55.90;;;;;;5019112;28;20449;-55
2022/08/18 08:55:50;;;;;;;14.50;13.50;;;31.40;54.60;;;;;;5018193;28;20769;-55
2022/08/18 08:58:22;;;;;;;14.30;13.30;;;31.80;52.80;;;;;;5030445;28;21033;-53
2022/08/18 09:00:49;;;;;;;14.00;13.10;;;32.20;51.30;;;;;;5049200;28;20578;-55
2022/08/18 09:03:39;;;;;;;13.60;12.70;;;32.40;49.70;;;;;;5050426;28;20404;-50
2022/08/18 09:06:18;;;;;;;14.73;13.47;;;32.80;50.20;;;;;;5050250;28;20443;-52
2022/08/18 09:09:06;;;;;;;14.77;13.30;;;33.40;45.60;;;;;;5050532;28;20407;-54
2022/08/18 09:12:04;;;;;;;13.20;12.20;;;33.50;43.10;;;;;;5049070;28;20464;-54
2022/08/18 09:14:42;;;;;;;13.33;12.40;;;33.60;43.40;;;;;;5049158;28;20424;-55
2022/08/18 09:17:32;;;;;;;13.03;12.23;;;33.90;43.00;;;;;;5050556;28;20404;-50
2022/08/18 09:20:22;;;;;;;14.50;13.50;;;34.70;39.90;;;;;;5031975;28;20454;-54
2022/08/18 09:22:53;;;;;;;13.13;12.27;;;35.10;38.10;;;;;;5023635;28;20479;-52
2022/08/18 09:25:36;;;;;;;13.90;12.83;;;35.60;37.20;;;;;;5029774;28;20430;-54
2022/08/18 09:28:11;;;;;;;13.20;12.43;;;36.40;35.50;;;;;;5035696;28;20432;-53
2022/08/18 09:31:02;;;;;;;12.50;11.80;;;37.40;32.90;;;;;;5030557;28;20460;-51
2022/08/18 09:33:39;;;;;;;13.17;12.27;;;38.30;31.60;;;;;;5030955;28;20496;-53
2022/08/18 09:36:42;;;;;;;12.77;11.60;;;39.50;28.80;;;;;;5030779;28;20416;-51
2022/08/18 09:42:15;;;;;;;12.63;11.93;;;40.70;24.30;;;;;;5029618;28;20419;-54
2022/08/18 09:44:46;;;;;;;12.57;11.73;;;40.70;24.90;;;;;;5029870;28;20515;-55
2022/08/18 09:47:32;;;;;;;12.60;11.80;;;40.60;23.20;;;;;;5016714;28;20448;-55
2022/08/18 09:50:04;;;;;;;12.30;11.57;;;39.60;24.00;;;;;;5029273;28;20461;-51
2022/08/18 09:52:32;;;;;;;14.70;13.13;;;39.00;24.30;;;;;;5020271;28;20436;-55
2022/08/18 09:54:58;;;;;;;13.70;12.37;;;38.30;25.50;;;;;;5026208;28;20430;-56
2022/08/18 09:57:38;;;;;;;13.50;12.53;;;37.90;25.50;;;;;;5028920;28;20829;-56
2022/08/18 10:00:14;;;;;;;13.57;12.67;;;37.30;26.30;;;;;;5030084;28;20192;-54
2022/08/18 10:02:42;;;;;;;13.73;12.73;;;36.70;27.40;;;;;;5030346;28;20474;-54
2022/08/18 10:05:19;;;;;;;13.83;12.93;;;36.40;27.30;;;;;;5026764;28;20449;-52
2022/08/18 10:08:06;;;;;;;13.80;12.73;;;36.20;27.90;;;;;;5028148;28;20918;-55
2022/08/18 10:10:53;;;;;;;14.03;13.03;;;35.70;28.90;;;;;;5031098;28;20480;-53
2022/08/18 10:13:37;;;;;;;14.97;13.97;;;35.70;28.60;;;;;;5026898;28;20448;-51
2022/08/18 10:16:27;;;;;;;15.70;14.70;;;35.60;28.60;;;;;;5023443;28;20433;-53
2022/08/18 10:19:06;;;;;;;14.60;13.60;;;35.20;28.70;;;;;;5029192;28;20417;-54
2022/08/18 10:22:05;;;;;;;14.90;13.87;;;34.60;30.00;;;;;;5029063;28;20492;-54
2022/08/18 10:24:52;;;;;;;14.10;12.90;;;34.20;30.70;;;;;;5008244;28;20544;-54
2022/08/18 10:27:43;;;;;;;15.40;14.33;;;34.10;31.30;;;;;;5030418;28;20429;-54
2022/08/18 10:30:37;;;;;;;14.97;13.97;;;34.20;31.20;;;;;;5029110;28;20461;-52
2022/08/18 10:33:09;;;;;;;15.67;14.47;;;34.20;30.70;;;;;;5027414;28;20541;-54
2022/08/18 10:35:37;;;;;;;14.83;13.70;;;34.20;30.80;;;;;;5026889;28;20437;-54
2022/08/18 10:38:24;;;;;;;15.20;13.83;;;34.00;31.50;;;;;;5030076;28;20417;-53
2022/08/18 10:41:18;;;;;;;13.97;13.07;;;33.90;32.00;;;;;;5029883;28;20422;-49
2022/08/18 10:43:47;;;;;;;14.83;13.83;;;33.70;31.70;;;;;;5029083;28;20449;-53
2022/08/18 10:46:19;;;;;;;14.20;13.10;;;33.30;32.30;;;;;;5028973;28;20422;-52
2022/08/18 10:49:12;;;;;;;14.33;13.33;;;33.00;33.60;;;;;;5029014;28;20748;-53
2022/08/18 10:52:02;;;;;;;14.97;13.90;;;32.90;33.70;;;;;;5026916;28;20780;-52
2022/08/18 10:54:39;;;;;;;14.00;12.97;;;32.70;34.00;;;;;;5019836;28;20417;-52
2022/08/18 10:57:40;;;;;;;14.73;13.57;;;32.70;34.00;;;;;;5029585;28;20457;-52
2022/08/18 11:00:16;;;;;;;14.73;13.60;;;32.70;34.50;;;;;;5017954;28;21071;-51
2022/08/18 11:03:11;;;;;;;14.23;13.00;;;32.70;34.50;;;;;;5028775;28;20417;-54
2022/08/18 11:05:37;;;;;;;13.47;12.37;;;32.80;33.80;;;;;;5028960;28;20420;-53
2022/08/18 11:08:06;;;;;;;15.63;14.07;;;32.90;34.30;;;;;;5029465;28;20418;-55
2022/08/18 11:10:42;;;;;;;13.20;12.07;;;33.10;33.60;;;;;;5033344;28;20449;-52
2022/08/18 11:13:28;;;;;;;12.80;11.90;;;33.20;33.10;;;;;;5032532;28;20468;-53
2022/08/18 11:15:59;;;;;;;13.47;12.47;;;33.30;32.80;;;;;;5030412;28;20612;-56
2022/08/18 11:18:39;;;;;;;13.03;11.97;;;33.20;33.10;;;;;;5031194;28;20441;-53
2022/08/18 11:21:30;;;;;;;13.23;12.20;;;33.20;33.20;;;;;;5032326;28;20904;-54
2022/08/18 11:24:20;;;;;;;12.97;11.73;;;33.10;33.20;;;;;;5020841;28;20405;-53
2022/08/18 11:26:47;;;;;;;13.50;12.43;;;33.00;33.40;;;;;;5033287;28;20426;-51
2022/08/18 11:29:36;;;;;;;13.40;12.00;;;32.90;33.40;;;;;;5031611;28;20465;-53
2022/08/18 11:32:05;;;;;;;12.10;11.30;;;32.80;34.10;;;;;;5032011;28;20426;-53
2022/08/18 11:34:39;;;;;;;13.17;12.30;;;32.60;33.60;;;;;;5032935;28;20429;-55
2022/08/18 11:37:38;;;;;;;12.43;11.53;;;32.50;34.40;;;;;;5032866;28;20421;-55
2022/08/18 11:40:20;;;;;;;12.07;11.17;;;32.30;34.70;;;;;;5033588;28;20528;-55
2022/08/18 11:43:00;;;;;;;12.47;11.43;;;32.20;34.80;;;;;;5020890;28;20496;-55
2022/08/18 11:45:31;;;;;;;12.20;11.10;;;31.90;35.10;;;;;;5030381;28;20440;-55
2022/08/18 11:48:15;;;;;;;13.30;12.10;;;31.80;35.30;;;;;;5031323;28;20803;-54
2022/08/18 11:51:00;;;;;;;13.43;12.30;;;31.70;35.40;;;;;;5030426;28;20523;-56
2022/08/18 11:53:31;;;;;;;13.40;12.17;;;31.50;36.00;;;;;;5031870;28;20450;-54
2022/08/18 11:56:12;;;;;;;13.80;12.77;;;31.20;36.30;;;;;;5032691;28;20884;-53
2022/08/18 11:58:47;;;;;;;14.20;12.97;;;31.10;36.90;;;;;;5031388;28;21054;-54
2022/08/18 12:01:33;;;;;;;13.47;12.20;;;31.00;37.50;;;;;;5031319;28;20424;-52
2022/08/18 12:04:13;;;;;;;12.60;11.67;;;30.80;38.60;;;;;;5051194;28;20748;-54
2022/08/18 12:06:50;;;;;;;12.80;11.90;;;30.60;39.40;;;;;;5034837;28;20429;-54
2022/08/18 12:09:25;;;;;;;14.27;13.07;;;30.60;39.70;;;;;;5031462;28;20899;-53
2022/08/18 12:12:01;;;;;;;13.63;12.60;;;30.70;39.70;;;;;;5032064;28;20421;-50
2022/08/18 12:14:32;;;;;;;13.63;12.47;;;30.70;40.10;;;;;;5031586;28;20409;-51
2022/08/18 12:16:57;;;;;;;15.30;11.67;;;30.90;39.40;;;;;;5031985;28;20440;-52
2022/08/18 12:19:24;;;;;;;14.07;12.97;;;31.00;39.40;;;;;;5029605;28;20544;-52
2022/08/18 12:21:54;;;;;;;14.57;13.37;;;31.30;38.60;;;;;;5029736;28;20238;-55
2022/08/18 12:24:37;;;;;;;14.20;13.10;;;31.30;38.10;;;;;;5031913;28;20418;-52
2022/08/18 12:27:03;;;;;;;13.83;12.40;;;31.20;38.40;;;;;;5031321;28;20421;-54
2022/08/18 12:29:29;;;;;;;14.03;12.80;;;30.80;38.80;;;;;;5031193;28;20480;-55
2022/08/18 12:31:54;;;;;;;14.20;13.10;;;30.70;39.40;;;;;;5031113;28;20179;-53
2022/08/18 12:34:23;;;;;;;13.47;12.57;;;30.40;40.40;;;;;;5030679;28;20179;-51
2022/08/18 12:36:55;;;;;;;14.20;12.90;;;30.50;40.70;;;;;;5031301;28;20284;-55
2022/08/18 12:39:21;;;;;;;14.00;12.90;;;30.50;40.50;;;;;;5031026;28;20412;-52
2022/08/18 12:41:47;;;;;;;14.27;13.13;;;30.60;40.40;;;;;;5030862;28;20429;-53
2022/08/18 12:44:13;;;;;;;13.60;12.50;;;30.60;40.40;;;;;;5031552;28;20179;-51
2022/08/18 12:46:40;;;;;;;13.50;12.50;;;30.50;40.90;;;;;;5030061;28;20289;-53
2022/08/18 12:49:15;;;;;;;14.23;12.87;;;30.40;41.30;;;;;;5030503;28;20427;-53
2022/08/18 12:51:40;;;;;;;14.20;12.90;;;30.60;41.30;;;;;;5029230;28;20597;-49
2022/08/18 12:54:06;;;;;;;13.87;12.77;;;30.80;40.90;;;;;;5023924;28;20413;-52
2022/08/18 12:56:32;;;;;;;14.40;13.20;;;30.80;40.40;;;;;;5030533;28;20261;-53
2022/08/18 12:59:01;;;;;;;13.60;12.30;;;30.70;40.70;;;;;;5031084;28;20239;-53
2022/08/18 13:01:28;;;;;;;14.60;13.30;;;30.50;41.40;;;;;;5030829;28;20241;-51
2022/08/18 13:03:54;;;;;;;13.00;12.00;;;30.40;42.10;;;;;;5031254;28;20422;-55
2022/08/18 13:06:23;;;;;;;14.93;13.63;;;30.20;42.40;;;;;;5030469;28;20461;-53
2022/08/18 13:08:50;;;;;;;14.73;13.33;;;30.10;42.30;;;;;;5031020;28;20839;-53
2022/08/18 13:11:19;;;;;;;14.07;13.00;;;30.00;42.30;;;;;;5030368;28;20461;-53
2022/08/18 13:13:45;;;;;;;14.47;13.27;;;29.80;42.70;;;;;;5030495;28;21013;-51
2022/08/18 13:16:12;;;;;;;13.80;12.67;;;29.90;42.80;;;;;;5029274;28;20511;-54